Etusivu
METAR-TAF:

METAR-TAF

Lentoasemat :

Brown Field Municipal Airport

San Diego, Kalifornia, Yhdysvallat

Leveyspiiri: 32-34-31N, Pituuspiiri: 116-59-35W, korkeus merenpinnasta: 164 m

Tämänhetkinen sää

Tämä raportti tehtiin 23 minuuttia sitten, kello 12.00 UTC
Tuuli 3 kn idästä
Lämpötila 7°C
Kosteus 93%
Ilmanpaine 1019 hPa
Näkyvyys: 4.0 km
selkeää
utua

METAR: KSDM 231200Z AUTO 08003KT 2 1/2SM BR CLR 07/06 A3010 RMK AO2 T00720056

Aika: 04:23 (12:23 UTC)


TAF: puuttuu

Säähavainnot ja -ennusteet yli 4000 lentoasemalta (METAR- ja TAF-raportit).

Käytössä olevat sääasemat on merkitty karttaan keltaisilla ja punaisilla pisteillä.

Aseta hiiri pisteen päälle nähdäksesi sääaseman nimen.

Klikkaa sitten nähdäksesi säähavainnot ja -ennusteet.

Kartan vaihtaminen: klikkaa mustalla rastilla varustettuja vihreitä pisteitä, niin voit zoomata sisään; viivalla varustettua vihreää pistettä, niin voit zoomata ulos tai vihreitä nuolia, niin pääset viereisille kartoille.


METAR-TAF: